sensor_id;sensor_type;location;lat;lon;timestamp;P1;durP1;ratioP1;P2;durP2;ratioP2
30249;SDS011;17064;47.974;13.826;2023-03-01T04:00:44;39.10;;;17.67;;
30249;SDS011;17064;47.974;13.826;2023-03-01T04:05:46;39.13;;;16.38;;
30249;SDS011;17064;47.974;13.826;2023-03-01T04:10:48;38.10;;;15.60;;
30249;SDS011;17064;47.974;13.826;2023-03-01T04:15:51;37.08;;;17.13;;
30249;SDS011;17064;47.974;13.826;2023-03-01T04:20:52;39.58;;;17.38;;
30249;SDS011;17064;47.974;13.826;2023-03-01T04:25:55;45.88;;;17.40;;
30249;SDS011;17064;47.974;13.826;2023-03-01T04:30:58;39.95;;;18.63;;
30249;SDS011;17064;47.974;13.826;2023-03-01T04:36:01;47.88;;;18.83;;
30249;SDS011;17064;47.974;13.826;2023-03-01T04:41:09;46.85;;;18.13;;
30249;SDS011;17064;47.974;13.826;2023-03-01T04:46:12;44.35;;;18.40;;
30249;SDS011;17064;47.974;13.826;2023-03-01T04:56:16;43.10;;;19.17;;
30249;SDS011;17064;47.974;13.826;2023-03-01T05:01:20;47.17;;;20.00;;
30249;SDS011;17064;47.974;13.826;2023-03-01T05:06:21;48.50;;;20.80;;
30249;SDS011;17064;47.974;13.826;2023-03-01T05:11:21;49.40;;;20.13;;
30249;SDS011;17064;47.974;13.826;2023-03-01T05:16:22;41.70;;;19.63;;
30249;SDS011;17064;47.974;13.826;2023-03-01T05:21:23;49.70;;;19.42;;
30249;SDS011;17064;47.974;13.826;2023-03-01T05:26:25;44.47;;;19.25;;
30249;SDS011;17064;47.974;13.826;2023-03-01T05:31:28;51.67;;;19.80;;
30249;SDS011;17064;47.974;13.826;2023-03-01T05:36:30;50.28;;;19.73;;
30249;SDS011;17064;47.974;13.826;2023-03-01T05:41:31;48.30;;;20.17;;
30249;SDS011;17064;47.974;13.826;2023-03-01T05:46:32;47.90;;;20.35;;
30249;SDS011;17064;47.974;13.826;2023-03-01T05:51:32;49.95;;;20.80;;
30249;SDS011;17064;47.974;13.826;2023-03-01T05:56:36;59.83;;;21.15;;
30249;SDS011;17064;47.974;13.826;2023-03-01T06:01:37;49.90;;;20.55;;
30249;SDS011;17064;47.974;13.826;2023-03-01T06:06:38;48.78;;;20.52;;
30249;SDS011;17064;47.974;13.826;2023-03-01T06:11:39;46.55;;;19.67;;
30249;SDS011;17064;47.974;13.826;2023-03-01T06:16:40;49.78;;;20.75;;
30249;SDS011;17064;47.974;13.826;2023-03-01T06:21:40;49.20;;;20.38;;
30249;SDS011;17064;47.974;13.826;2023-03-01T06:26:41;56.03;;;22.33;;
30249;SDS011;17064;47.974;13.826;2023-03-01T06:31:42;47.67;;;19.70;;
30249;SDS011;17064;47.974;13.826;2023-03-01T06:36:42;47.88;;;20.20;;
30249;SDS011;17064;47.974;13.826;2023-03-01T06:41:44;44.83;;;19.15;;
30249;SDS011;17064;47.974;13.826;2023-03-01T06:46:44;52.58;;;21.13;;
30249;SDS011;17064;47.974;13.826;2023-03-01T06:51:45;46.63;;;20.77;;
30249;SDS011;17064;47.974;13.826;2023-03-01T06:56:46;56.72;;;23.27;;
30249;SDS011;17064;47.974;13.826;2023-03-01T07:01:47;52.58;;;21.80;;
30249;SDS011;17064;47.974;13.826;2023-03-01T07:06:48;50.03;;;22.55;;
30249;SDS011;17064;47.974;13.826;2023-03-01T07:11:55;51.17;;;22.42;;
30249;SDS011;17064;47.974;13.826;2023-03-01T07:16:57;51.10;;;22.35;;
30249;SDS011;17064;47.974;13.826;2023-03-01T07:21:57;53.28;;;22.83;;
30249;SDS011;17064;47.974;13.826;2023-03-01T07:26:58;50.30;;;22.15;;
30249;SDS011;17064;47.974;13.826;2023-03-01T07:31:59;54.85;;;22.65;;
30249;SDS011;17064;47.974;13.826;2023-03-01T07:36:59;51.85;;;23.17;;
30249;SDS011;17064;47.974;13.826;2023-03-01T07:42:00;53.28;;;24.17;;
30249;SDS011;17064;47.974;13.826;2023-03-01T07:47:01;54.97;;;22.02;;
30249;SDS011;17064;47.974;13.826;2023-03-01T07:52:03;46.55;;;21.42;;
30249;SDS011;17064;47.974;13.826;2023-03-01T07:57:03;46.58;;;21.02;;
30249;SDS011;17064;47.974;13.826;2023-03-01T08:02:04;46.83;;;20.40;;
30249;SDS011;17064;47.974;13.826;2023-03-01T08:07:05;46.58;;;19.92;;
30249;SDS011;17064;47.974;13.826;2023-03-01T08:12:06;48.30;;;20.08;;
30249;SDS011;17064;47.974;13.826;2023-03-01T08:17:07;42.15;;;19.50;;
30249;SDS011;17064;47.974;13.826;2023-03-01T08:22:08;42.45;;;20.00;;
30249;SDS011;17064;47.974;13.826;2023-03-01T08:27:08;41.00;;;20.02;;
30249;SDS011;17064;47.974;13.826;2023-03-01T08:32:09;41.75;;;19.10;;
30249;SDS011;17064;47.974;13.826;2023-03-01T08:37:10;42.42;;;20.15;;
30249;SDS011;17064;47.974;13.826;2023-03-01T08:42:11;38.45;;;17.50;;
30249;SDS011;17064;47.974;13.826;2023-03-01T08:47:12;45.00;;;19.27;;
30249;SDS011;17064;47.974;13.826;2023-03-01T08:52:12;38.05;;;17.70;;
30249;SDS011;17064;47.974;13.826;2023-03-01T08:57:13;36.80;;;17.95;;
30249;SDS011;17064;47.974;13.826;2023-03-01T09:02:17;38.75;;;17.67;;
30249;SDS011;17064;47.974;13.826;2023-03-01T09:07:18;37.58;;;18.40;;
30249;SDS011;17064;47.974;13.826;2023-03-01T09:12:19;34.85;;;17.50;;
30249;SDS011;17064;47.974;13.826;2023-03-01T09:17:20;36.05;;;18.67;;
30249;SDS011;17064;47.974;13.826;2023-03-01T09:22:21;36.45;;;16.92;;
30249;SDS011;17064;47.974;13.826;2023-03-01T09:27:22;37.20;;;17.67;;
30249;SDS011;17064;47.974;13.826;2023-03-01T09:32:24;33.55;;;17.83;;
30249;SDS011;17064;47.974;13.826;2023-03-01T09:37:26;37.13;;;18.30;;
30249;SDS011;17064;47.974;13.826;2023-03-01T09:42:27;37.20;;;18.95;;
30249;SDS011;17064;47.974;13.826;2023-03-01T09:47:32;39.33;;;18.40;;
30249;SDS011;17064;47.974;13.826;2023-03-01T09:58:17;42.42;;;19.55;;
30249;SDS011;17064;47.974;13.826;2023-03-01T10:03:58;36.85;;;18.65;;
30249;SDS011;17064;47.974;13.826;2023-03-01T10:09:24;33.72;;;17.42;;
30249;SDS011;17064;47.974;13.826;2023-03-01T10:19:53;43.85;;;17.60;;
30249;SDS011;17064;47.974;13.826;2023-03-01T10:24:59;37.40;;;18.10;;
30249;SDS011;17064;47.974;13.826;2023-03-01T10:30:20;31.83;;;17.27;;
30249;SDS011;17064;47.974;13.826;2023-03-01T10:35:23;34.83;;;16.33;;
30249;SDS011;17064;47.974;13.826;2023-03-01T10:40:27;31.42;;;16.25;;
30249;SDS011;17064;47.974;13.826;2023-03-01T10:45:38;35.70;;;17.50;;
30249;SDS011;17064;47.974;13.826;2023-03-01T10:50:44;34.97;;;17.33;;
30249;SDS011;17064;47.974;13.826;2023-03-01T10:55:46;30.92;;;16.48;;
30249;SDS011;17064;47.974;13.826;2023-03-01T11:00:54;33.60;;;17.05;;
30249;SDS011;17064;47.974;13.826;2023-03-01T11:16:23;30.80;;;15.68;;
30249;SDS011;17064;47.974;13.826;2023-03-01T11:21:25;32.47;;;15.90;;
30249;SDS011;17064;47.974;13.826;2023-03-01T11:26:29;34.10;;;16.63;;
30249;SDS011;17064;47.974;13.826;2023-03-01T11:31:34;34.83;;;17.58;;
30249;SDS011;17064;47.974;13.826;2023-03-01T11:36:39;32.17;;;17.17;;
30249;SDS011;17064;47.974;13.826;2023-03-01T11:41:51;31.13;;;16.40;;
30249;SDS011;17064;47.974;13.826;2023-03-01T11:47:23;32.78;;;16.25;;
30249;SDS011;17064;47.974;13.826;2023-03-01T11:58:00;32.65;;;16.88;;
30249;SDS011;17064;47.974;13.826;2023-03-01T12:08:20;29.23;;;17.05;;
30249;SDS011;17064;47.974;13.826;2023-03-01T12:24:41;35.05;;;17.17;;
30249;SDS011;17064;47.974;13.826;2023-03-01T12:35:52;32.28;;;17.17;;
30249;SDS011;17064;47.974;13.826;2023-03-01T12:57:39;36.67;;;18.38;;
30249;SDS011;17064;47.974;13.826;2023-03-01T13:02:50;34.92;;;16.88;;
30249;SDS011;17064;47.974;13.826;2023-03-01T13:13:36;28.85;;;16.90;;
30249;SDS011;17064;47.974;13.826;2023-03-01T13:18:36;29.10;;;15.95;;
30249;SDS011;17064;47.974;13.826;2023-03-01T13:23:38;30.38;;;16.92;;
30249;SDS011;17064;47.974;13.826;2023-03-01T13:28:53;31.98;;;16.02;;
30249;SDS011;17064;47.974;13.826;2023-03-01T13:33:57;31.40;;;15.52;;
30249;SDS011;17064;47.974;13.826;2023-03-01T13:39:00;28.70;;;16.02;;
30249;SDS011;17064;47.974;13.826;2023-03-01T13:49:13;33.03;;;16.30;;
30249;SDS011;17064;47.974;13.826;2023-03-01T13:54:22;31.05;;;15.43;;
30249;SDS011;17064;47.974;13.826;2023-03-01T13:59:30;26.98;;;15.35;;
30249;SDS011;17064;47.974;13.826;2023-03-01T14:04:32;27.27;;;16.63;;
30249;SDS011;17064;47.974;13.826;2023-03-01T14:09:37;28.42;;;16.67;;
30249;SDS011;17064;47.974;13.826;2023-03-01T14:14:48;29.42;;;16.52;;
30249;SDS011;17064;47.974;13.826;2023-03-01T14:19:59;30.95;;;15.43;;
30249;SDS011;17064;47.974;13.826;2023-03-01T14:25:04;28.98;;;15.93;;
30249;SDS011;17064;47.974;13.826;2023-03-01T14:35:25;34.70;;;17.83;;
30249;SDS011;17064;47.974;13.826;2023-03-01T14:40:34;37.50;;;17.48;;
30249;SDS011;17064;47.974;13.826;2023-03-01T14:45:36;32.85;;;17.63;;
30249;SDS011;17064;47.974;13.826;2023-03-01T14:50:40;28.75;;;15.57;;
30249;SDS011;17064;47.974;13.826;2023-03-01T14:55:44;35.05;;;17.60;;
30249;SDS011;17064;47.974;13.826;2023-03-01T15:01:21;30.67;;;15.13;;
30249;SDS011;17064;47.974;13.826;2023-03-01T15:06:19;37.08;;;15.57;;
30249;SDS011;17064;47.974;13.826;2023-03-01T15:11:24;32.63;;;15.05;;
30249;SDS011;17064;47.974;13.826;2023-03-01T15:16:33;30.48;;;14.95;;
30249;SDS011;17064;47.974;13.826;2023-03-01T15:21:42;29.02;;;15.60;;
30249;SDS011;17064;47.974;13.826;2023-03-01T15:26:51;28.88;;;15.15;;
30249;SDS011;17064;47.974;13.826;2023-03-01T15:32:22;33.72;;;15.40;;
30249;SDS011;17064;47.974;13.826;2023-03-01T15:37:38;30.73;;;15.82;;
30249;SDS011;17064;47.974;13.826;2023-03-01T15:42:49;30.38;;;13.35;;
30249;SDS011;17064;47.974;13.826;2023-03-01T15:47:52;28.77;;;14.23;;
30249;SDS011;17064;47.974;13.826;2023-03-01T15:53:26;27.58;;;14.38;;
30249;SDS011;17064;47.974;13.826;2023-03-01T15:58:28;33.95;;;14.40;;
30249;SDS011;17064;47.974;13.826;2023-03-01T16:03:29;30.92;;;14.38;;
30249;SDS011;17064;47.974;13.826;2023-03-01T16:08:30;31.85;;;13.18;;
30249;SDS011;17064;47.974;13.826;2023-03-01T16:13:31;36.60;;;14.32;;
30249;SDS011;17064;47.974;13.826;2023-03-01T16:18:32;32.25;;;13.57;;
30249;SDS011;17064;47.974;13.826;2023-03-01T16:23:33;30.80;;;13.90;;
30249;SDS011;17064;47.974;13.826;2023-03-01T16:28:33;26.67;;;14.52;;
30249;SDS011;17064;47.974;13.826;2023-03-01T16:33:34;26.13;;;13.05;;
30249;SDS011;17064;47.974;13.826;2023-03-01T16:38:36;31.38;;;13.75;;
30249;SDS011;17064;47.974;13.826;2023-03-01T16:43:37;30.63;;;13.35;;
30249;SDS011;17064;47.974;13.826;2023-03-01T16:48:38;26.08;;;13.30;;
30249;SDS011;17064;47.974;13.826;2023-03-01T16:53:39;36.70;;;13.23;;
30249;SDS011;17064;47.974;13.826;2023-03-01T16:58:41;27.17;;;12.93;;
30249;SDS011;17064;47.974;13.826;2023-03-01T17:03:42;36.67;;;15.05;;
30249;SDS011;17064;47.974;13.826;2023-03-01T17:08:44;28.75;;;12.95;;
30249;SDS011;17064;47.974;13.826;2023-03-01T17:13:45;25.55;;;12.27;;
30249;SDS011;17064;47.974;13.826;2023-03-01T17:18:47;23.88;;;12.35;;
30249;SDS011;17064;47.974;13.826;2023-03-01T17:23:48;25.50;;;12.60;;
30249;SDS011;17064;47.974;13.826;2023-03-01T17:28:51;29.58;;;12.88;;
30249;SDS011;17064;47.974;13.826;2023-03-01T17:33:52;28.77;;;13.73;;
30249;SDS011;17064;47.974;13.826;2023-03-01T17:38:52;32.30;;;13.82;;
30249;SDS011;17064;47.974;13.826;2023-03-01T17:43:53;30.45;;;13.32;;
30249;SDS011;17064;47.974;13.826;2023-03-01T17:48:54;28.60;;;13.88;;
30249;SDS011;17064;47.974;13.826;2023-03-01T17:53:55;27.33;;;12.52;;
30249;SDS011;17064;47.974;13.826;2023-03-01T17:58:56;30.45;;;14.50;;
30249;SDS011;17064;47.974;13.826;2023-03-01T18:03:57;27.20;;;13.55;;
30249;SDS011;17064;47.974;13.826;2023-03-01T18:08:58;27.27;;;13.30;;
30249;SDS011;17064;47.974;13.826;2023-03-01T18:13:59;31.90;;;14.57;;
30249;SDS011;17064;47.974;13.826;2023-03-01T18:19:01;40.67;;;15.63;;
30249;SDS011;17064;47.974;13.826;2023-03-01T18:24:02;30.63;;;14.05;;
30249;SDS011;17064;47.974;13.826;2023-03-01T18:29:04;29.05;;;15.30;;
30249;SDS011;17064;47.974;13.826;2023-03-01T18:34:06;32.30;;;16.43;;
30249;SDS011;17064;47.974;13.826;2023-03-01T18:39:11;36.08;;;16.30;;
30249;SDS011;17064;47.974;13.826;2023-03-01T18:44:14;36.30;;;16.13;;
30249;SDS011;17064;47.974;13.826;2023-03-01T18:49:15;37.00;;;16.38;;
30249;SDS011;17064;47.974;13.826;2023-03-01T18:54:16;35.03;;;16.40;;
30249;SDS011;17064;47.974;13.826;2023-03-01T18:59:18;33.25;;;15.82;;
30249;SDS011;17064;47.974;13.826;2023-03-01T19:04:19;37.53;;;16.50;;
30249;SDS011;17064;47.974;13.826;2023-03-01T19:09:20;35.63;;;16.27;;
30249;SDS011;17064;47.974;13.826;2023-03-01T19:14:24;36.38;;;17.30;;
30249;SDS011;17064;47.974;13.826;2023-03-01T19:19:26;34.88;;;16.83;;
30249;SDS011;17064;47.974;13.826;2023-03-01T19:24:27;36.10;;;16.02;;
30249;SDS011;17064;47.974;13.826;2023-03-01T19:29:29;34.35;;;16.05;;
30249;SDS011;17064;47.974;13.826;2023-03-01T19:34:30;33.92;;;16.40;;
30249;SDS011;17064;47.974;13.826;2023-03-01T19:39:31;34.13;;;15.60;;
30249;SDS011;17064;47.974;13.826;2023-03-01T19:44:34;37.70;;;17.07;;
30249;SDS011;17064;47.974;13.826;2023-03-01T19:49:36;33.45;;;16.55;;
30249;SDS011;17064;47.974;13.826;2023-03-01T19:54:37;37.00;;;17.10;;
30249;SDS011;17064;47.974;13.826;2023-03-01T19:59:43;37.08;;;17.20;;
30249;SDS011;17064;47.974;13.826;2023-03-01T20:04:45;44.42;;;18.05;;
30249;SDS011;17064;47.974;13.826;2023-03-01T20:09:46;36.67;;;17.10;;
30249;SDS011;17064;47.974;13.826;2023-03-01T20:14:47;35.17;;;16.90;;
30249;SDS011;17064;47.974;13.826;2023-03-01T20:19:54;36.33;;;17.17;;
30249;SDS011;17064;47.974;13.826;2023-03-01T20:24:55;38.33;;;17.13;;
30249;SDS011;17064;47.974;13.826;2023-03-01T20:29:56;43.45;;;18.17;;
30249;SDS011;17064;47.974;13.826;2023-03-01T20:34:57;36.90;;;17.35;;
30249;SDS011;17064;47.974;13.826;2023-03-01T20:39:59;40.10;;;17.75;;
30249;SDS011;17064;47.974;13.826;2023-03-01T20:44:59;36.60;;;17.60;;
30249;SDS011;17064;47.974;13.826;2023-03-01T20:50:02;33.28;;;17.15;;
30249;SDS011;17064;47.974;13.826;2023-03-01T20:55:04;37.38;;;16.90;;
30249;SDS011;17064;47.974;13.826;2023-03-01T21:00:07;37.95;;;17.13;;
30249;SDS011;17064;47.974;13.826;2023-03-01T21:05:09;39.00;;;17.98;;
30249;SDS011;17064;47.974;13.826;2023-03-01T21:10:10;41.38;;;16.73;;
30249;SDS011;17064;47.974;13.826;2023-03-01T21:15:13;34.35;;;16.80;;
30249;SDS011;17064;47.974;13.826;2023-03-01T21:20:16;29.65;;;13.00;;
30249;SDS011;17064;47.974;13.826;2023-03-01T21:25:18;38.00;;;16.90;;
30249;SDS011;17064;47.974;13.826;2023-03-01T21:30:18;36.17;;;16.27;;
30249;SDS011;17064;47.974;13.826;2023-03-01T21:35:19;37.55;;;18.02;;
30249;SDS011;17064;47.974;13.826;2023-03-01T21:40:20;33.63;;;16.67;;
30249;SDS011;17064;47.974;13.826;2023-03-01T21:45:21;44.03;;;17.83;;
30249;SDS011;17064;47.974;13.826;2023-03-01T21:50:22;37.75;;;17.73;;
30249;SDS011;17064;47.974;13.826;2023-03-01T21:55:22;37.88;;;17.83;;
30249;SDS011;17064;47.974;13.826;2023-03-01T22:00:23;39.10;;;17.65;;
30249;SDS011;17064;47.974;13.826;2023-03-01T22:05:24;39.72;;;17.60;;
30249;SDS011;17064;47.974;13.826;2023-03-01T22:10:25;35.90;;;17.08;;
30249;SDS011;17064;47.974;13.826;2023-03-01T22:15:26;36.35;;;16.65;;
30249;SDS011;17064;47.974;13.826;2023-03-01T22:20:27;37.50;;;17.17;;
30249;SDS011;17064;47.974;13.826;2023-03-01T22:25:28;35.30;;;16.17;;
30249;SDS011;17064;47.974;13.826;2023-03-01T22:30:29;37.45;;;17.65;;
30249;SDS011;17064;47.974;13.826;2023-03-01T22:35:30;34.03;;;15.70;;
30249;SDS011;17064;47.974;13.826;2023-03-01T22:40:30;38.30;;;15.93;;
30249;SDS011;17064;47.974;13.826;2023-03-01T22:45:31;38.50;;;17.83;;
30249;SDS011;17064;47.974;13.826;2023-03-01T22:50:32;40.45;;;17.38;;
30249;SDS011;17064;47.974;13.826;2023-03-01T22:55:33;41.60;;;17.05;;
30249;SDS011;17064;47.974;13.826;2023-03-01T23:00:34;41.75;;;18.52;;
30249;SDS011;17064;47.974;13.826;2023-03-01T23:05:35;41.17;;;18.05;;
30249;SDS011;17064;47.974;13.826;2023-03-01T23:10:38;36.70;;;16.33;;
30249;SDS011;17064;47.974;13.826;2023-03-01T23:15:39;37.88;;;15.98;;
30249;SDS011;17064;47.974;13.826;2023-03-01T23:20:43;42.33;;;16.98;;
30249;SDS011;17064;47.974;13.826;2023-03-01T23:25:51;42.47;;;17.08;;
30249;SDS011;17064;47.974;13.826;2023-03-01T23:30:54;35.42;;;16.17;;
30249;SDS011;17064;47.974;13.826;2023-03-01T23:35:57;35.47;;;17.33;;
30249;SDS011;17064;47.974;13.826;2023-03-01T23:40:59;37.10;;;16.65;;
30249;SDS011;17064;47.974;13.826;2023-03-01T23:46:00;33.65;;;16.40;;
30249;SDS011;17064;47.974;13.826;2023-03-01T23:51:04;33.03;;;13.98;;
30249;SDS011;17064;47.974;13.826;2023-03-01T23:56:05;41.72;;;17.02;;
